Time;durP1;ratioP1;P1;durP2;ratioP2;P2;SDS_P1;SDS_P2;PMS_P1;PMS_P2;Temp;Humidity;BMP_temperature;BMP_pressure;BME280_temperature;BME280_humidity;BME280_pressure;Samples;Min_cycle;Max_cycle;Signal;HPM_P1;HPM_P2
2024/03/17 00:00:29;;;;;;;60.00;34.10;;;;;;;7.07;78.35;99580.26;107373;1258;73959;-39
2024/03/17 00:02:57;;;;;;;58.70;34.70;;;;;;;7.04;78.53;99578.63;107308;1260;66747;-39
2024/03/17 00:05:25;;;;;;;61.60;35.00;;;;;;;7.03;78.49;99575.71;107341;1259;72707;-39
2024/03/17 00:07:52;;;;;;;57.50;32.60;;;;;;;7.01;78.44;99574.81;107241;1257;61728;-39
2024/03/17 00:10:20;;;;;;;53.70;30.30;;;;;;;7.07;78.36;99575.42;107377;1257;61178;-39
2024/03/17 00:12:47;;;;;;;55.10;32.20;;;;;;;7.16;78.05;99567.41;107241;1257;74608;-39
2024/03/17 00:15:14;;;;;;;59.90;33.80;;;;;;;7.19;77.97;99571.77;107373;1258;67566;-39
2024/03/17 00:17:42;;;;;;;57.10;31.70;;;;;;;7.18;77.90;99571.86;107232;1260;72732;-38
2024/03/17 00:20:18;;;;;;;57.90;33.80;;;;;;;7.15;77.87;99569.17;107343;1256;60449;-39
2024/03/17 00:22:51;;;;;;;60.20;35.10;;;;;;;7.14;77.92;99566.02;107374;1258;61126;-38
2024/03/17 00:25:18;;;;;;;55.80;33.60;;;;;;;7.13;77.96;99562.77;107236;1257;74704;-39
2024/03/17 00:27:48;;;;;;;56.10;31.80;;;;;;;7.17;77.73;99563.35;107323;1258;66619;-39
2024/03/17 00:30:15;;;;;;;56.90;32.60;;;;;;;7.19;77.56;99562.60;107354;1259;72688;-39
2024/03/17 00:32:43;;;;;;;54.70;34.50;;;;;;;7.17;77.53;99559.13;107245;1258;61229;-38
2024/03/17 00:35:13;;;;;;;59.00;34.50;;;;;;;7.10;77.65;99557.30;107176;1260;61822;-38
2024/03/17 00:37:41;;;;;;;61.90;35.10;;;;;;;7.04;77.88;99556.42;107193;1257;73380;-39
2024/03/17 00:40:09;;;;;;;59.80;34.00;;;;;;;7.01;78.04;99554.40;107161;1254;67907;-39
2024/03/17 00:42:36;;;;;;;64.50;34.20;;;;;;;7.03;78.03;99552.55;107056;1261;71162;-39
2024/03/17 00:45:06;;;;;;;59.10;34.60;;;;;;;7.07;77.92;99552.00;107277;1259;61707;-39
2024/03/17 00:47:33;;;;;;;;;;;;;;;7.06;77.99;99551.20;107215;1258;58896;-39
2024/03/17 00:50:01;;;;;;;62.00;33.90;;;;;;;7.01;78.14;99551.42;107230;1257;74724;-39
2024/03/17 00:52:28;;;;;;;63.60;35.00;;;;;;;6.99;78.26;99544.10;107427;1256;66770;-39
2024/03/17 00:54:55;;;;;;;61.70;32.70;;;;;;;7.00;78.29;99541.38;107330;1259;73122;-38
2024/03/17 00:57:23;;;;;;;56.70;32.30;;;;;;;7.06;78.12;99539.55;107331;1259;61305;-38
2024/03/17 00:59:52;;;;;;;59.70;34.80;;;;;;;7.08;77.97;99536.02;107357;1257;60985;-39
2024/03/17 01:02:21;;;;;;;63.50;34.10;;;;;;;7.04;78.09;99533.88;107403;1254;73433;-39
2024/03/17 01:04:48;;;;;;;59.60;34.30;;;;;;;6.98;78.21;99528.28;107459;1254;65827;-39
2024/03/17 01:07:16;;;;;;;63.90;34.50;;;;;;;6.95;78.33;99526.23;107435;1259;72512;-38
2024/03/17 01:09:43;;;;;;;57.20;34.10;;;;;;;6.90;78.27;99523.45;107473;1254;61260;-38
2024/03/17 01:12:11;;;;;;;57.20;33.40;;;;;;;6.91;78.39;99525.55;107241;1255;186578;-38
2024/03/17 01:16:20;;;;;;;54.00;33.10;;;;;;;6.96;78.62;99519.42;104097;1292;599999;-38
2024/03/17 01:18:47;;;;;;;59.60;34.10;;;;;;;6.96;78.50;99515.98;106574;1267;60181;-38
2024/03/17 01:21:15;;;;;;;59.90;34.80;;;;;;;6.96;78.52;99514.80;106590;1271;59686;-38
2024/03/17 01:23:42;;;;;;;58.10;32.30;;;;;;;6.93;78.50;99518.94;106602;1267;72185;-38
2024/03/17 01:26:09;;;;;;;58.20;31.90;;;;;;;6.93;78.24;99514.24;106560;1267;67748;-38
2024/03/17 01:28:40;;;;;;;54.40;32.70;;;;;;;6.94;78.36;99509.48;106580;1266;72684;-38
2024/03/17 01:31:09;;;;;;;56.50;31.20;;;;;;;6.99;78.37;99509.08;106615;1269;157826;-38
2024/03/17 01:33:36;;;;;;;79.20;35.40;;;;;;;7.02;78.39;99505.23;106733;1267;59521;-38
2024/03/17 01:36:04;;;;;;;314.00;79.20;;;;;;;7.01;78.30;99506.27;106738;1263;73302;-38
2024/03/17 01:38:32;;;;;;;56.70;33.70;;;;;;;7.01;78.36;99505.73;106753;1264;67945;-38
2024/03/17 01:40:59;;;;;;;60.00;33.00;;;;;;;7.01;78.24;99504.05;106799;1264;71391;-38
2024/03/17 01:43:27;;;;;;;53.00;31.00;;;;;;;7.02;78.35;99501.23;106727;1267;61690;-37
2024/03/17 01:45:54;;;;;;;51.80;30.70;;;;;;;7.11;78.15;99501.90;106719;1269;60379;-38
2024/03/17 01:48:21;;;;;;;52.90;30.20;;;;;;;7.15;77.69;99502.85;106753;1266;73823;-38
2024/03/17 01:50:49;;;;;;;54.40;30.70;;;;;;;7.13;77.71;99505.23;106755;1269;65349;-38
2024/03/17 01:53:17;;;;;;;55.30;32.30;;;;;;;7.11;77.76;99501.76;106712;1270;72676;-38
2024/03/17 01:55:45;;;;;;;52.00;31.20;;;;;;;7.10;77.74;99499.10;106610;1267;60508;-37
2024/03/17 01:58:12;;;;;;;51.70;29.00;;;;;;;7.07;77.68;99494.77;106679;1266;60280;-38
2024/03/17 02:00:40;;;;;;;50.30;27.40;;;;;;;7.09;77.52;99493.30;106522;1266;71778;-37
2024/03/17 02:03:11;;;;;;;49.80;29.60;;;;;;;7.14;77.46;99491.86;106609;1269;67935;-38
2024/03/17 02:05:41;;;;;;;50.90;29.60;;;;;;;7.15;77.42;99489.04;106639;1266;72660;-38
2024/03/17 02:08:10;;;;;;;50.90;30.00;;;;;;;7.11;77.47;99482.88;106705;1267;60453;-37
2024/03/17 02:10:37;;;;;;;51.70;31.10;;;;;;;7.07;77.51;99485.36;106709;1270;60332;-38
2024/03/17 02:13:05;;;;;;;52.40;30.10;;;;;;;7.02;77.66;99484.36;106666;1267;73840;-37
2024/03/17 02:15:33;;;;;;;50.90;28.00;;;;;;;7.01;77.71;99483.72;105900;1267;1003503;-37
2024/03/17 02:18:00;;;;;;;46.50;26.80;;;;;;;7.05;77.60;99481.98;106695;1266;71488;-37
2024/03/17 02:23:14;;;;;;;45.30;27.70;;;;;;;7.12;77.46;99484.61;105992;1266;1015550;-38
2024/03/17 02:25:42;;;;;;;51.00;28.40;;;;;;;7.08;77.45;99480.86;105881;1269;1002981;-38
2024/03/17 02:28:09;;;;;;;47.90;28.60;;;;;;;7.05;77.63;99477.36;106722;1267;66774;-37
2024/03/17 02:30:37;;;;;;;46.00;28.50;;;;;;;7.03;77.65;99477.84;106720;1272;72688;-38
2024/03/17 02:33:04;;;;;;;46.50;27.20;;;;;;;7.01;77.62;99477.33;106743;1267;60373;-38
2024/03/17 02:35:31;;;;;;;44.20;26.40;;;;;;;7.05;77.62;99473.23;106742;1267;60541;-37
2024/03/17 02:37:59;;;;;;;42.90;26.50;;;;;;;7.13;77.46;99469.09;106734;1270;73029;-37
2024/03/17 02:40:26;;;;;;;46.60;27.20;;;;;;;7.12;77.28;99469.77;106758;1267;67631;-37
2024/03/17 02:42:53;;;;;;;44.90;27.40;;;;;;;7.07;77.42;99467.21;106714;1270;72775;-37
2024/03/17 02:45:21;;;;;;;43.40;27.00;;;;;;;7.05;77.52;99469.34;106733;1266;60525;-38
2024/03/17 02:47:50;;;;;;;46.70;27.20;;;;;;;7.03;77.64;99465.58;106571;1269;60257;-37
2024/03/17 02:50:17;;;;;;;41.20;25.20;;;;;;;7.00;77.54;99468.59;106607;1267;72662;-38
2024/03/17 02:52:44;;;;;;;41.20;26.30;;;;;;;7.03;77.31;99472.05;106597;1268;66281;-38
2024/03/17 02:55:12;;;;;;;41.10;26.20;;;;;;;7.04;77.24;99474.10;106626;1272;71012;-37
2024/03/17 02:57:40;;;;;;;41.80;26.70;;;;;;;7.01;77.44;99471.16;106718;1267;60357;-38
2024/03/17 03:00:12;;;;;;;44.80;26.00;;;;;;;6.97;77.58;99470.65;106628;1266;60447;-37
2024/03/17 03:02:40;;;;;;;44.30;27.70;;;;;;;6.90;77.61;99464.09;106620;1267;73870;-37
2024/03/17 03:05:08;;;;;;;41.90;26.30;;;;;;;6.85;77.77;99466.52;106731;1267;66635;-37
2024/03/17 03:07:35;;;;;;;39.70;25.30;;;;;;;6.85;77.61;99463.22;106714;1267;72326;-38
2024/03/17 03:10:05;;;;;;;40.80;24.80;;;;;;;6.89;77.42;99456.33;106729;1269;61035;-38
2024/03/17 03:12:32;;;;;;;41.40;25.90;;;;;;;6.87;77.36;99457.88;106715;1269;60542;-38
2024/03/17 03:15:00;;;;;;;44.90;26.30;;;;;;;6.82;77.42;99455.17;106751;1267;73840;-37
2024/03/17 03:17:28;;;;;;;42.20;26.00;;;;;;;6.77;77.34;99453.70;106718;1265;66369;-37
2024/03/17 03:19:55;;;;;;;46.10;27.70;;;;;;;6.70;77.35;99455.13;106715;1267;71253;-38
2024/03/17 03:22:23;;;;;;;40.60;25.40;;;;;;;6.63;77.55;99450.64;106706;1269;60388;-38
2024/03/17 03:24:54;;;;;;;41.60;25.70;;;;;;;6.61;77.43;99449.95;106775;1270;60351;-38
2024/03/17 03:27:21;;;;;;;198.90;64.20;;;;;;;6.59;77.42;99449.87;106728;1267;73874;-39
2024/03/17 03:29:49;;;;;;;1.30;1.30;;;;;;;6.52;77.54;99443.33;106744;1266;68004;-37
2024/03/17 03:32:17;;;;;;;0.20;0.20;;;;;;;6.45;77.66;99440.33;106594;1266;72711;-38
2024/03/17 03:34:44;;;;;;;43.60;22.70;;;;;;;6.38;77.91;99438.07;106609;1267;60593;-38
2024/03/17 03:37:12;;;;;;;39.00;20.30;;;;;;;6.33;77.95;99438.40;106743;1267;60418;-37
2024/03/17 03:39:40;;;;;;;37.40;19.30;;;;;;;6.31;77.86;99440.02;106752;1264;72657;-38
2024/03/17 03:42:07;;;;;;;36.00;19.50;;;;;;;6.30;77.80;99439.29;106749;1263;67571;-38
2024/03/17 03:44:34;;;;;;;35.10;20.90;;;;;;;6.27;78.05;99441.36;106776;1264;70419;-38
2024/03/17 03:47:02;;;;;;;39.50;20.80;;;;;;;6.23;78.28;99441.16;106848;1264;60486;-39
2024/03/17 03:49:30;;;;;;;41.20;20.80;;;;;;;6.16;78.40;99442.54;106888;1262;60001;-38
2024/03/17 03:51:57;;;;;;;39.70;20.00;;;;;;;6.12;78.53;99445.45;106832;1263;72639;-39
2024/03/17 03:54:25;;;;;;;32.10;18.30;;;;;;;6.08;78.52;99440.39;106866;1266;67683;-39
2024/03/17 03:56:54;;;;;;;34.50;18.70;;;;;;;6.10;78.40;99440.15;106841;1264;72695;-39
2024/03/17 03:59:21;;;;;;;358.10;150.00;;;;;;;6.13;78.32;99443.33;106832;1262;60440;-38
2024/03/17 04:01:49;;;;;;;107.20;26.20;;;;;;;6.10;78.45;99440.54;106872;1267;60578;-39
2024/03/17 04:04:16;;;;;;;42.80;24.60;;;;;;;6.07;78.68;99440.14;106875;1263;73846;-38
2024/03/17 04:06:44;;;;;;;38.10;22.50;;;;;;;6.04;78.69;99440.08;106860;1264;68125;-39
2024/03/17 04:09:11;;;;;;;38.50;23.10;;;;;;;6.01;78.72;99436.98;106839;1268;72685;-38
2024/03/17 04:11:38;;;;;;;42.80;23.30;;;;;;;5.98;78.71;99437.03;106869;1266;60438;-38
2024/03/17 04:14:06;;;;;;;34.90;21.60;;;;;;;6.01;78.47;99431.66;106772;1267;60384;-38
2024/03/17 04:16:33;;;;;;;43.00;24.40;;;;;;;6.02;78.23;99434.47;106706;1264;73888;-39
2024/03/17 04:19:00;;;;;;;47.10;28.30;;;;;;;5.95;78.39;99431.39;106739;1267;66361;-38
2024/03/17 04:21:28;;;;;;;44.30;29.80;;;;;;;5.87;78.71;99429.96;106756;1262;71425;-38
2024/03/17 04:23:56;;;;;;;43.50;29.90;;;;;;;5.73;78.82;99421.34;106786;1269;60434;-39
2024/03/17 04:26:23;;;;;;;39.50;29.00;;;;;;;5.71;79.19;99425.72;106869;1267;60997;-38
2024/03/17 04:28:50;;;;;;;40.00;27.90;;;;;;;5.63;79.28;99423.88;106851;1266;73870;-38
2024/03/17 04:31:18;;;;;;;39.30;28.50;;;;;;;5.62;79.47;99428.75;106792;1264;65753;-38
2024/03/17 04:33:46;;;;;;;37.90;27.00;;;;;;;5.63;79.39;99429.16;106713;1264;72709;-38
2024/03/17 04:36:13;;;;;;;44.10;26.90;;;;;;;5.59;79.82;99432.10;106815;1263;60327;-38
2024/03/17 04:38:41;;;;;;;37.80;24.50;;;;;;;5.56;80.08;99430.83;106849;1267;60440;-38
2024/03/17 04:41:09;;;;;;;38.00;24.70;;;;;;;5.51;80.36;99433.75;106812;1268;73869;-38
2024/03/17 04:43:37;;;;;;;43.20;24.60;;;;;;;5.45;80.43;99432.59;106841;1266;66448;-38
2024/03/17 04:46:05;;;;;;;38.50;23.60;;;;;;;5.46;80.52;99430.73;106830;1264;72672;-38
2024/03/17 04:48:33;;;;;;;36.80;23.40;;;;;;;5.51;80.39;99432.40;106853;1264;60063;-38
2024/03/17 04:51:00;;;;;;;37.10;24.00;;;;;;;5.48;80.46;99431.16;106861;1267;60203;-38
2024/03/17 04:53:29;;;;;;;38.00;24.40;;;;;;;5.45;80.81;99429.14;106894;1266;72703;-38
2024/03/17 04:56:04;;;;;;;39.10;25.70;;;;;;;5.41;81.02;99426.62;106776;1263;67626;-38
2024/03/17 04:58:32;;;;;;;36.80;22.90;;;;;;;5.38;81.38;99427.80;106785;1264;72759;-38
2024/03/17 05:01:09;;;;;;;33.60;22.10;;;;;;;5.44;81.35;99427.94;106737;1264;60983;-38
2024/03/17 05:03:37;;;;;;;34.60;24.30;;;;;;;5.52;81.35;99425.45;106771;1264;60310;-38
2024/03/17 05:06:05;;;;;;;36.80;23.70;;;;;;;5.48;81.62;99419.22;106791;1262;73854;-38
2024/03/17 05:08:32;;;;;;;39.10;23.80;;;;;;;5.47;82.07;99427.00;106840;1266;67995;-38
2024/03/17 05:11:01;;;;;;;36.70;23.20;;;;;;;5.45;82.39;99422.30;106889;1263;72835;-38
2024/03/17 05:13:28;;;;;;;41.90;27.10;;;;;;;5.42;82.72;99419.96;106871;1264;60555;-38
2024/03/17 05:15:56;;;;;;;37.20;23.40;;;;;;;5.51;82.83;99424.23;106840;1264;59330;-39
2024/03/17 05:18:25;;;;;;;32.80;23.90;;;;;;;5.55;83.02;99422.48;106872;1264;73836;-38
2024/03/17 05:20:58;;;;;;;34.60;23.60;;;;;;;5.53;83.41;99428.33;106857;1263;67584;-39
2024/03/17 05:23:27;;;;;;;37.80;27.10;;;;;;;5.47;83.80;99430.39;106880;1264;71640;-39
2024/03/17 05:25:56;;;;;;;50.70;33.80;;;;;;;5.38;84.18;99430.15;106882;1263;61289;-38
2024/03/17 05:28:28;;;;;;;42.70;29.20;;;;;;;5.36;84.30;99435.42;106884;1264;61167;-38
2024/03/17 05:30:56;;;;;;;51.50;33.20;;;;;;;5.36;84.35;99433.48;106859;1263;74694;-38
2024/03/17 05:33:25;;;;;;;68.50;42.20;;;;;;;5.31;85.11;99434.47;106831;1264;66756;-38
2024/03/17 05:35:59;;;;;;;63.60;36.80;;;;;;;5.22;85.54;99434.45;106922;1267;72718;-39
2024/03/17 05:38:27;;;;;;;94.30;52.40;;;;;;;5.18;85.89;99432.38;106837;1270;61249;-38
2024/03/17 05:41:01;;;;;;;80.30;54.50;;;;;;;5.24;86.08;99439.37;106851;1267;61220;-38
2024/03/17 05:43:30;;;;;;;65.10;44.00;;;;;;;5.25;86.17;99440.48;106863;1263;74714;-38
2024/03/17 05:45:58;;;;;;;36.20;25.40;;;;;;;5.18;86.36;99443.34;106727;1267;67929;-38
2024/03/17 05:48:25;;;;;;;30.50;21.00;;;;;;;5.09;86.72;99446.64;106771;1264;71394;-37
2024/03/17 05:50:52;;;;;;;30.30;20.00;;;;;;;5.08;86.91;99443.22;106850;1264;61249;-38
2024/03/17 05:53:20;;;;;;;32.50;21.20;;;;;;;5.13;87.04;99438.80;106723;1263;61316;-38
2024/03/17 05:55:48;;;;;;;30.10;21.00;;;;;;;5.13;87.32;99442.83;106730;1266;73959;-37
2024/03/17 05:58:15;;;;;;;106.50;54.00;;;;;;;5.09;87.63;99441.20;106875;1264;67752;-38
2024/03/17 06:00:43;;;;;;;152.20;65.30;;;;;;;5.03;87.74;99436.35;106790;1264;72738;-38
2024/03/17 06:03:11;;;;;;;77.60;42.20;;;;;;;5.05;87.64;99438.20;106771;1266;61256;-37
2024/03/17 06:05:42;;;;;;;121.40;62.30;;;;;;;5.08;87.67;99439.98;106902;1261;61282;-37
2024/03/17 06:08:11;;;;;;;61.60;34.80;;;;;;;5.03;87.56;99440.48;106774;1260;74685;-37
2024/03/17 06:10:44;;;;;;;78.40;42.50;;;;;;;4.94;87.73;99433.20;106944;1260;66317;-38
2024/03/17 06:13:13;;;;;;;128.10;65.60;;;;;;;4.90;88.19;99439.40;106730;1267;72863;-38
2024/03/17 06:15:40;;;;;;;139.70;72.70;;;;;;;4.94;88.43;99436.59;106887;1261;61348;-37
2024/03/17 06:18:12;;;;;;;88.90;51.50;;;;;;;4.97;88.40;99438.45;106844;1264;60081;-38
2024/03/17 06:20:44;;;;;;;56.90;37.30;;;;;;;4.95;88.70;99436.73;106746;1263;74658;-38
2024/03/17 06:23:12;;;;;;;34.20;23.70;;;;;;;4.85;88.80;99427.50;106831;1261;66848;-38
2024/03/17 06:25:41;;;;;;;26.60;19.30;;;;;;;4.91;89.06;99433.46;106893;1264;72685;-38
2024/03/17 06:28:13;;;;;;;28.50;18.20;;;;;;;4.96;88.83;99434.86;106885;1261;61323;-38
2024/03/17 06:30:41;;;;;;;27.30;18.10;;;;;;;4.95;89.32;99434.39;106974;1263;61724;-38
2024/03/17 06:33:11;;;;;;;23.80;16.80;;;;;;;4.94;89.36;99432.48;107045;1264;74681;-38
2024/03/17 06:35:39;;;;;;;24.80;17.30;;;;;;;4.94;89.38;99428.20;106914;1264;66785;-38
2024/03/17 06:38:09;;;;;;;22.70;16.50;;;;;;;5.01;89.34;99432.11;106868;1266;71095;-38
2024/03/17 06:40:37;;;;;;;24.60;17.50;;;;;;;5.09;89.33;99434.59;106844;1261;59983;-38
2024/03/17 06:43:05;;;;;;;23.20;16.90;;;;;;;5.11;89.38;99439.30;106876;1264;61264;-37
2024/03/17 06:45:32;;;;;;;21.80;15.90;;;;;;;5.09;89.05;99436.42;107009;1263;74684;-38
2024/03/17 06:48:00;;;;;;;19.00;14.70;;;;;;;5.09;88.83;99439.11;106875;1264;67602;-38
2024/03/17 06:50:27;;;;;;;22.20;16.10;;;;;;;5.11;88.42;99439.58;106986;1263;71085;-38
2024/03/17 06:52:55;;;;;;;21.00;15.40;;;;;;;5.03;88.42;99429.58;106820;1261;61233;-37
2024/03/17 06:55:22;;;;;;;21.90;15.70;;;;;;;5.04;88.96;99434.83;106730;1263;60552;-38
2024/03/17 06:57:51;;;;;;;22.20;16.10;;;;;;;5.03;89.30;99434.73;106866;1265;74636;-38
2024/03/17 07:00:24;;;;;;;22.20;15.80;;;;;;;5.10;89.40;99433.02;106735;1264;67732;-38
2024/03/17 07:02:52;;;;;;;21.10;15.20;;;;;;;5.14;89.39;99435.39;106770;1264;72689;-38
2024/03/17 07:05:19;;;;;;;23.00;16.60;;;;;;;5.11;89.41;99438.34;107140;1257;61067;-38
2024/03/17 07:07:46;;;;;;;25.00;16.60;;;;;;;5.09;89.70;99433.19;107152;1258;61006;-38
2024/03/17 07:10:15;;;;;;;22.30;16.30;;;;;;;5.14;89.62;99435.80;107182;1263;73449;-38
2024/03/17 07:12:42;;;;;;;21.10;15.80;;;;;;;5.20;89.32;99434.04;107181;1262;67628;-38
2024/03/17 07:15:11;;;;;;;25.30;17.50;;;;;;;5.19;89.39;99436.00;107223;1260;72668;-38
2024/03/17 07:17:38;;;;;;;24.10;15.80;;;;;;;5.18;89.72;99435.66;107213;1257;61224;-38
2024/03/17 07:20:08;;;;;;;22.40;15.70;;;;;;;5.25;89.58;99433.27;107115;1257;59834;-38
2024/03/17 07:22:36;;;;;;;24.90;17.40;;;;;;;5.33;89.39;99432.40;107204;1262;73775;-38
2024/03/17 07:25:04;;;;;;;25.60;17.70;;;;;;;5.34;89.49;99433.61;107218;1257;66434;-38
2024/03/17 07:27:32;;;;;;;21.90;15.30;;;;;;;5.35;89.56;99433.80;107221;1257;71967;-38
2024/03/17 07:30:04;;;;;;;24.60;16.30;;;;;;;5.39;89.49;99436.19;107218;1257;61352;-38
2024/03/17 07:32:32;;;;;;;23.60;17.10;;;;;;;5.46;88.87;99434.79;107209;1257;60329;-38
2024/03/17 07:34:59;;;;;;;25.50;17.60;;;;;;;5.48;88.76;99431.42;107225;1258;74792;-38
2024/03/17 07:37:26;;;;;;;25.60;17.40;;;;;;;5.46;88.88;99431.02;107238;1257;67591;-38
2024/03/17 07:39:54;;;;;;;22.70;15.90;;;;;;;5.45;88.96;99428.84;107191;1258;71497;-38
2024/03/17 07:42:21;;;;;;;25.30;17.10;;;;;;;5.53;88.87;99428.84;107197;1258;61712;-38
2024/03/17 07:44:48;;;;;;;23.80;17.70;;;;;;;5.59;88.57;99429.41;107202;1257;61251;-38
2024/03/17 07:47:16;;;;;;;26.90;17.90;;;;;;;5.60;88.77;99428.63;107270;1258;74748;-38
2024/03/17 07:49:46;;;;;;;26.60;17.40;;;;;;;5.61;88.71;99426.27;107166;1257;66300;-38
2024/03/17 07:52:15;;;;;;;22.70;16.10;;;;;;;5.68;88.63;99424.14;107217;1263;71456;-38
2024/03/17 07:54:44;;;;;;;25.20;16.90;;;;;;;5.79;88.48;99431.70;107210;1257;61124;-38
2024/03/17 07:57:12;;;;;;;25.10;18.00;;;;;;;5.85;88.45;99439.94;107246;1260;61170;-38
2024/03/17 07:59:39;;;;;;;28.50;18.40;;;;;;;5.85;87.96;99440.10;107182;1257;74644;-38
2024/03/17 08:02:08;;;;;;;24.40;16.50;;;;;;;5.85;87.75;99436.55;107139;1257;66341;-39
2024/03/17 08:04:37;;;;;;;23.30;16.90;;;;;;;5.93;87.60;99432.38;107250;1257;71410;-38
2024/03/17 08:07:05;;;;;;;25.00;17.10;;;;;;;6.00;87.40;99438.38;107210;1257;61131;-38
2024/03/17 08:09:33;;;;;;;26.50;18.30;;;;;;;5.99;87.31;99433.23;107290;1260;61108;-38
2024/03/17 08:12:01;;;;;;;23.80;16.80;;;;;;;5.97;86.99;99433.05;107215;1258;74690;-39
2024/03/17 08:14:29;;;;;;;23.30;17.10;;;;;;;6.00;86.73;99429.23;107269;1257;68009;-38
2024/03/17 08:16:57;;;;;;;26.40;17.20;;;;;;;6.03;86.32;99427.38;107198;1257;72739;-38
2024/03/17 08:19:24;;;;;;;25.60;18.80;;;;;;;6.00;86.31;99422.48;107177;1257;61205;-39
2024/03/17 08:21:52;;;;;;;26.50;18.60;;;;;;;5.97;86.47;99414.44;107109;1258;60389;-38
2024/03/17 08:24:19;;;;;;;24.60;16.80;;;;;;;5.95;86.66;99409.70;107055;1257;73773;-38
2024/03/17 08:26:46;;;;;;;23.00;16.30;;;;;;;6.04;86.67;99403.41;107051;1257;67631;-39
2024/03/17 08:29:14;;;;;;;23.70;17.10;;;;;;;6.09;86.49;99405.00;107099;1257;71451;-37
2024/03/17 08:31:42;;;;;;;23.90;17.20;;;;;;;6.11;86.44;99402.84;107100;1257;61101;-37
2024/03/17 08:34:09;;;;;;;21.80;16.40;;;;;;;6.13;86.07;99397.58;107041;1257;60866;-38
2024/03/17 08:36:36;;;;;;;23.60;17.90;;;;;;;6.19;85.62;99398.63;107111;1257;73336;-38
2024/03/17 08:39:04;;;;;;;23.20;17.00;;;;;;;6.22;85.01;99392.20;107146;1257;67898;-38
2024/03/17 08:41:31;;;;;;;26.70;18.10;;;;;;;6.18;85.05;99393.38;107089;1257;71513;-38
2024/03/17 08:44:00;;;;;;;25.80;18.30;;;;;;;6.15;85.08;99391.20;107146;1257;61121;-37
2024/03/17 08:46:27;;;;;;;23.30;16.50;;;;;;;6.16;85.60;99393.38;107177;1257;61182;-37
2024/03/17 08:48:55;;;;;;;23.80;17.10;;;;;;;6.23;85.13;99397.04;107186;1258;74616;-38
2024/03/17 08:51:23;;;;;;;24.40;17.90;;;;;;;6.24;84.70;99397.55;107209;1257;68358;-37
2024/03/17 08:53:52;;;;;;;25.40;17.90;;;;;;;6.22;85.00;99396.23;107177;1258;72822;-38
2024/03/17 08:56:23;;;;;;;25.50;17.70;;;;;;;6.23;85.59;99395.66;107183;1258;62361;-38
2024/03/17 08:58:50;;;;;;;24.20;16.90;;;;;;;6.32;85.18;99398.77;107145;1257;61250;-38
2024/03/17 09:01:18;;;;;;;26.40;18.10;;;;;;;6.38;84.82;99397.52;107262;1258;74549;-38
2024/03/17 09:03:45;;;;;;;27.10;19.30;;;;;;;6.40;85.02;99402.05;107220;1257;67925;-38
2024/03/17 09:06:16;;;;;;;25.90;18.50;;;;;;;6.41;84.91;99401.23;107165;1257;72745;-38
2024/03/17 09:08:44;;;;;;;24.80;18.20;;;;;;;6.41;84.83;99399.77;107253;1257;61173;-38
2024/03/17 09:11:12;;;;;;;27.90;18.80;;;;;;;6.47;84.39;99395.52;107117;1257;60391;-38
2024/03/17 09:13:39;;;;;;;29.60;19.40;;;;;;;6.51;84.31;99395.66;107218;1257;73555;-38
2024/03/17 09:16:11;;;;;;;26.10;18.90;;;;;;;6.49;84.52;99396.98;107169;1257;69016;-38
2024/03/17 09:18:38;;;;;;;26.10;18.70;;;;;;;6.47;84.46;99394.69;106995;1257;73825;-39
2024/03/17 09:21:08;;;;;;;17.00;12.70;;;;;;;6.54;84.37;99392.53;107119;1257;61795;-39
2024/03/17 09:23:36;;;;;;;23.60;18.10;;;;;;;6.62;83.70;99386.58;107247;1257;61282;-39
2024/03/17 09:26:08;;;;;;;25.80;18.00;;;;;;;6.63;83.69;99382.15;107259;1257;74990;-39
2024/03/17 09:28:36;;;;;;;30.40;20.20;;;;;;;6.63;83.43;99377.30;107218;1257;67646;-38
2024/03/17 09:31:06;;;;;;;31.70;17.80;;;;;;;6.64;83.41;99370.41;107188;1257;71495;-39
2024/03/17 09:33:35;;;;;;;23.70;17.70;;;;;;;6.72;83.17;99368.22;107190;1258;62043;-39
2024/03/17 09:36:03;;;;;;;29.60;18.70;;;;;;;6.81;83.17;99370.22;107350;1257;62271;-39
2024/03/17 09:38:31;;;;;;;27.70;18.10;;;;;;;6.84;82.90;99374.46;107220;1257;73480;-39
2024/03/17 09:41:00;;;;;;;24.80;17.70;;;;;;;6.84;82.95;99365.45;107055;1257;68132;-39
2024/03/17 09:43:29;;;;;;;29.50;18.90;;;;;;;6.86;82.79;99359.52;107179;1257;72662;-38
2024/03/17 09:45:59;;;;;;;28.50;19.10;;;;;;;6.95;82.50;99357.54;107173;1257;61282;-39
2024/03/17 09:48:28;;;;;;;26.90;19.20;;;;;;;6.97;82.55;99355.06;107244;1257;62268;-39
2024/03/17 09:50:56;;;;;;;27.60;20.00;;;;;;;6.96;82.84;99351.19;107331;1257;76803;-39
2024/03/17 09:53:31;;;;;;;26.40;18.30;;;;;;;6.99;83.14;99352.18;107179;1257;66484;-39
2024/03/17 09:56:12;;;;;;;35.70;19.30;;;;;;;7.11;82.43;99355.42;107078;1257;73935;-37
2024/03/17 09:58:39;;;;;;;31.20;18.60;;;;;;;7.18;81.28;99354.55;107218;1257;61308;-38
2024/03/17 10:01:06;;;;;;;33.40;20.10;;;;;;;7.18;81.47;99351.33;107169;1257;60142;-38
2024/03/17 10:03:45;;;;;;;30.50;19.20;;;;;;;7.18;80.90;99355.64;107195;1256;76805;-38
2024/03/17 10:06:13;;;;;;;25.30;17.70;;;;;;;7.23;80.99;99348.41;107175;1257;66858;-39
2024/03/17 10:09:09;;;;;;;28.50;19.10;;;;;;;7.30;80.54;99343.33;107239;1257;73100;-39
2024/03/17 10:11:36;;;;;;;31.40;18.60;;;;;;;7.32;80.22;99346.92;107228;1257;61280;-39
2024/03/17 10:14:08;;;;;;;25.70;18.70;;;;;;;7.29;80.44;99343.70;107227;1257;61225;-39
2024/03/17 10:16:37;;;;;;;26.20;18.70;;;;;;;7.28;80.59;99346.75;107214;1257;73592;-39
2024/03/17 10:19:11;;;;;;;27.70;18.10;;;;;;;7.37;80.40;99347.23;107250;1263;66967;-39
2024/03/17 10:21:40;;;;;;;23.90;18.20;;;;;;;7.46;80.42;99345.34;107170;1258;71702;-39
2024/03/17 10:24:20;;;;;;;28.40;19.30;;;;;;;7.50;80.42;99347.95;107270;1256;59354;-39
2024/03/17 10:26:50;;;;;;;31.90;21.60;;;;;;;7.52;79.70;99347.09;107233;1257;60371;-39
2024/03/17 10:29:37;;;;;;;27.10;19.20;;;;;;;7.54;79.86;99342.36;107256;1257;73147;-39
2024/03/17 10:32:12;;;;;;;26.60;18.90;;;;;;;7.66;79.53;99343.80;107214;1257;66754;-39
2024/03/17 10:34:40;;;;;;;24.80;18.10;;;;;;;7.74;79.39;99343.73;107211;1261;73070;-39
2024/03/17 10:37:10;;;;;;;29.50;21.40;;;;;;;7.75;79.23;99347.70;107131;1257;62448;-39
2024/03/17 10:39:39;;;;;;;28.10;19.10;;;;;;;7.74;78.50;99336.34;107217;1257;61218;-38
2024/03/17 10:42:07;;;;;;;26.50;18.50;;;;;;;7.73;78.51;99336.45;107174;1257;75157;-39
2024/03/17 10:44:36;;;;;;;24.70;18.20;;;;;;;7.79;78.24;99337.42;107283;1257;67799;-39
2024/03/17 10:47:09;;;;;;;28.40;19.90;;;;;;;7.83;78.07;99333.37;107106;1257;71665;-39
2024/03/17 10:49:38;;;;;;;27.10;20.00;;;;;;;7.82;77.91;99333.27;107254;1258;61136;-39
2024/03/17 10:52:15;;;;;;;28.10;19.70;;;;;;;7.82;78.00;99330.42;107309;1257;61203;-38
2024/03/17 10:54:47;;;;;;;26.70;19.20;;;;;;;7.86;77.55;99337.92;107183;1256;76776;-39
2024/03/17 10:57:34;;;;;;;25.30;18.70;;;;;;;7.95;77.31;99328.79;107250;1258;68070;-39
2024/03/17 11:00:08;;;;;;;26.90;19.90;;;;;;;7.97;77.26;99325.23;107211;1260;71473;-38
2024/03/17 11:02:36;;;;;;;29.10;21.20;;;;;;;8.00;77.60;99322.20;107281;1256;61282;-39
2024/03/17 11:05:29;;;;;;;27.30;19.30;;;;;;;8.07;77.67;99316.84;107218;1257;61135;-39
2024/03/17 11:08:01;;;;;;;22.60;17.30;;;;;;;8.27;77.24;99317.02;107219;1257;73524;-39
2024/03/17 11:10:31;;;;;;;27.90;19.00;;;;;;;8.43;76.65;99310.74;107217;1257;65615;-37
2024/03/17 11:13:03;;;;;;;26.70;19.70;;;;;;;8.54;75.75;99306.04;107287;1257;71521;-37
2024/03/17 11:15:36;;;;;;;26.80;20.20;;;;;;;8.64;74.88;99304.11;107272;1257;60332;-38
2024/03/17 11:18:10;;;;;;;30.00;19.90;;;;;;;8.65;73.79;99297.05;107183;1257;61097;-38
2024/03/17 11:20:43;;;;;;;24.50;17.90;;;;;;;8.74;73.91;99303.61;107123;1258;76852;-38
2024/03/17 11:23:10;;;;;;;23.20;17.60;;;;;;;8.87;73.89;99304.00;107198;1257;66037;-39
2024/03/17 11:25:38;;;;;;;24.00;18.00;;;;;;;8.95;73.33;99305.13;107041;1257;73111;-38
2024/03/17 11:28:10;;;;;;;27.50;20.20;;;;;;;8.95;72.64;99302.60;107254;1256;62299;-38